Springlake, TX (79082)

8:40 AM CDT on September 17, 2014 (GMT -0500)
WT_Meso Olton 6S | Change Station
CLOSE
Current Station
Personal Weather Station
Location: Olton, TX
Elevation: 3565 ft
Nearby Weather Stations

Elev 3565 ft 34.09 °N, 102.12 °W | Updated 45 minutes ago

Partly Cloudy
Partly Cloudy
63 °F
Feels Like 63 °F
N
4
Wind Variable Wind from SW
Gusts 5.0 mph

Today
High -- | Low -- °F
--% Chance of Precip.
Yesterday
High -- | Low -- °F
Precip. -- in
7:33 AM 7:53 PM
Waning Crescent, 36% visible
Pressure 30.07 in
Visibility 4.0 miles
Clouds Clear
Dew Point 62 °F
Humidity 96%
Rainfall -999.00 in
Snow Depth Not available.
UV 0 out of 12
Pollen 8.40 out of 12
Air Quality Not available.
Flu Activity Not available.
METAR KPVW 171315Z AUTO 00000KT 4SM BR CLR 18/18 A3007 RMK AO2 T01830176

More Conditions Fewer Conditions

Pressure 30.07 in
Visibility 4.0 miles
Clouds Clear
Dew Point 62 °F
Humidity 96%
Rainfall -999.00 in
Snow Depth Not available.
UV 0 out of 12
Pollen 8.40 out of 12
Air Quality Not available.
Flu Activity Not available.
METAR KPVW 171315Z AUTO 00000KT 4SM BR CLR 18/18 A3007 RMK AO2 T01830176

More Conditions Fewer Conditions

Nowcast | as of 6:49 am CDT on September 17, 2014

Through 9 am...scattered drizzle and light rain showers are expected to persist across the South Plains and adjacent portions of the rolling plains. This activity will be capable of producing up to a few hundredths of an inch of precipitation as it moves east near 30 mph. Road surfaces are slick this morning and extra caution is advised in the commute this morning.

×

10-Day Weather Forecast

Almanac

Astronomy

Sep. 17, 2014 Rise Set
Actual Time 7:33 AM CDT 7:53 PM CDT
Civil Twilight 7:08 AM CDT 8:18 PM CDT
Nautical Twilight 6:39 AM CDT 8:47 PM CDT
Astronomical Twilight 6:09 AM CDT 9:17 PM CDT
Moon 1:46 AM CDT 3:53 PM CDT
Length of Visible Light 13h 09m
Length of Day
12h 19m
Tomorrow will be 2m 7s shorter.
Waning Crescent, 36% of the Moon is Illuminated
Today
Waning Crescent
Sep 24
New
Oct 1
First Quarter
Oct 8
Full
Oct 15
Last Quarter

Today's Extremes

State Highs State Lows

Community

WunderPhotos

Upload Photos

1,754,029 photos uploaded!

Nearby

Snow Depth

Station Depth Elevation
No new snow has been reported.

Earthquake Activity

City Distance Mag. Time & Date
No recent earthquake activity has been reported nearby.
Minimum magnitude displayed is 2.5.

Coastal Water Temperatures

Place Temperature
No Stations Reporting

Nearby Weather Stations